createdAt,value
2023-03-10T00:02:10.561Z,8.23
2023-03-10T00:05:38.808Z,9.30
2023-03-10T00:12:34.622Z,6.95
2023-03-10T00:19:32.109Z,5.55
2023-03-10T00:23:00.576Z,5.40
2023-03-10T00:26:29.668Z,5.40
2023-03-10T00:29:57.786Z,6.55
2023-03-10T00:33:28.086Z,5.57
2023-03-10T00:37:05.270Z,5.80
2023-03-10T00:40:33.602Z,4.97
2023-03-10T00:44:02.002Z,5.18
2023-03-10T00:47:31.757Z,5.00
2023-03-10T00:50:59.948Z,5.30
2023-03-10T00:54:28.257Z,5.68
2023-03-10T00:57:56.404Z,5.32
2023-03-10T01:01:26.021Z,6.00
2023-03-10T01:04:56.854Z,6.43
2023-03-10T01:08:24.893Z,7.22
2023-03-10T01:11:52.664Z,6.50
2023-03-10T01:15:20.798Z,5.80
2023-03-10T01:18:48.610Z,5.10
2023-03-10T01:25:45.956Z,4.43
2023-03-10T01:32:42.097Z,3.85
2023-03-10T01:39:40.405Z,4.03
2023-03-10T01:43:28.603Z,3.35
2023-03-10T01:47:26.650Z,3.03
2023-03-10T01:50:55.921Z,3.08
2023-03-10T01:54:28.048Z,3.47
2023-03-10T01:57:57.953Z,3.78
2023-03-10T02:01:26.944Z,3.13
2023-03-10T02:04:58.768Z,3.67
2023-03-10T02:08:36.114Z,3.88
2023-03-10T02:12:06.945Z,3.33
2023-03-10T02:15:35.276Z,4.00
2023-03-10T02:19:05.816Z,3.60
2023-03-10T02:22:43.471Z,3.42
2023-03-10T02:26:27.846Z,3.15
2023-03-10T02:30:01.848Z,3.72
2023-03-10T02:33:37.177Z,3.40
2023-03-10T02:37:06.314Z,4.45
2023-03-10T02:40:36.897Z,3.70
2023-03-10T02:44:21.245Z,3.83
2023-03-10T02:47:49.078Z,3.40
2023-03-10T02:51:21.779Z,3.97
2023-03-10T02:54:49.849Z,3.05
2023-03-10T02:58:18.107Z,4.05
2023-03-10T03:01:48.577Z,3.92
2023-03-10T03:05:19.482Z,4.28
2023-03-10T03:08:48.769Z,5.00
2023-03-10T03:12:19.150Z,3.85
2023-03-10T03:15:49.225Z,3.60
2023-03-10T03:19:17.960Z,3.55
2023-03-10T03:22:46.636Z,4.25
2023-03-10T03:26:17.633Z,3.28
2023-03-10T03:29:45.574Z,4.03
2023-03-10T03:34:21.070Z,3.75
2023-03-10T03:37:53.444Z,4.07
2023-03-10T03:41:22.453Z,3.95
2023-03-10T03:44:50.573Z,4.60
2023-03-10T03:48:21.276Z,4.38
2023-03-10T03:51:53.850Z,4.70
2023-03-10T03:55:24.302Z,3.83
2023-03-10T03:58:53.990Z,3.63
2023-03-10T04:05:50.268Z,5.18
2023-03-10T04:09:21.585Z,4.63
2023-03-10T04:12:49.681Z,4.78
2023-03-10T04:16:17.714Z,4.20
2023-03-10T04:19:54.055Z,4.70
2023-03-10T04:23:30.532Z,4.30
2023-03-10T04:26:59.394Z,5.82
2023-03-10T04:30:29.791Z,5.10
2023-03-10T04:34:01.088Z,5.85
2023-03-10T04:37:29.526Z,6.20
2023-03-10T04:40:59.853Z,5.75
2023-03-10T04:44:32.649Z,6.30
2023-03-10T04:48:04.389Z,7.25
2023-03-10T04:51:32.721Z,7.65
2023-03-10T04:55:02.587Z,6.70
2023-03-10T04:58:30.725Z,5.95
2023-03-10T05:01:59.159Z,6.03
2023-03-10T05:05:27.231Z,5.65
2023-03-10T05:08:55.775Z,5.80
2023-03-10T05:12:26.560Z,5.80
2023-03-10T05:15:54.833Z,6.65
2023-03-10T05:19:22.703Z,6.13
2023-03-10T05:22:51.103Z,5.95
2023-03-10T05:26:20.482Z,5.65
2023-03-10T05:29:50.433Z,6.28
2023-03-10T05:33:22.416Z,5.20
2023-03-10T05:36:52.185Z,6.78
2023-03-10T05:40:20.971Z,7.18
2023-03-10T05:43:50.805Z,7.28
2023-03-10T05:47:19.950Z,6.40
2023-03-10T05:50:57.601Z,5.80
2023-03-10T05:54:25.919Z,5.30
2023-03-10T05:57:54.580Z,6.50
2023-03-10T06:01:24.121Z,7.47
2023-03-10T06:04:52.276Z,8.25
2023-03-10T06:08:20.048Z,8.07
2023-03-10T06:11:48.051Z,5.55
2023-03-10T06:15:15.979Z,6.53
2023-03-10T06:18:45.805Z,8.68
2023-03-10T06:22:15.195Z,7.38
2023-03-10T06:25:43.178Z,6.05
2023-03-10T06:29:11.910Z,6.55
2023-03-10T06:32:39.942Z,6.95
2023-03-10T06:36:11.718Z,5.97
2023-03-10T06:39:40.593Z,5.40
2023-03-10T06:43:08.946Z,6.88
2023-03-10T06:46:37.006Z,6.57
2023-03-10T06:50:06.084Z,6.20
2023-03-10T06:53:35.829Z,6.78
2023-03-10T06:57:05.739Z,7.85
2023-03-10T07:00:33.851Z,7.57
2023-03-10T07:04:02.157Z,7.85
2023-03-10T07:07:30.314Z,6.55
2023-03-10T07:10:59.441Z,7.00
2023-03-10T07:14:27.569Z,6.70
2023-03-10T07:17:56.482Z,6.75
2023-03-10T07:21:24.967Z,7.57
2023-03-10T07:24:55.282Z,6.85
2023-03-10T07:28:24.718Z,7.55
2023-03-10T07:31:52.969Z,8.73
2023-03-10T07:38:48.828Z,7.43
2023-03-10T07:45:46.175Z,8.73
2023-03-10T07:49:13.914Z,6.95
2023-03-10T07:56:11.307Z,7.70
2023-03-10T07:59:39.578Z,6.90
2023-03-10T08:06:40.260Z,6.30
2023-03-10T08:10:09.002Z,6.22
2023-03-10T08:13:37.802Z,6.88
2023-03-10T08:17:06.606Z,7.05
2023-03-10T08:20:36.824Z,6.35
2023-03-10T08:24:05.253Z,7.03
2023-03-10T08:27:33.664Z,7.45
2023-03-10T08:31:07.470Z,6.35
2023-03-10T08:34:37.317Z,7.28
2023-03-10T08:38:05.816Z,7.53
2023-03-10T08:41:36.395Z,6.55
2023-03-10T08:45:08.480Z,7.43
2023-03-10T08:48:36.925Z,6.63
2023-03-10T08:52:09.300Z,7.57
2023-03-10T08:55:37.314Z,6.10
2023-03-10T08:59:05.208Z,6.32
2023-03-10T09:02:34.894Z,6.82
2023-03-10T09:06:02.743Z,7.00
2023-03-10T09:09:32.454Z,7.28
2023-03-10T09:13:12.914Z,6.65
2023-03-10T09:16:42.286Z,7.03
2023-03-10T09:20:11.138Z,6.55
2023-03-10T09:23:43.322Z,6.63
2023-03-10T09:27:11.390Z,7.82
2023-03-10T09:30:41.106Z,8.82
2023-03-10T09:34:09.792Z,9.20
2023-03-10T09:37:38.382Z,7.32
2023-03-10T09:41:15.054Z,7.40
2023-03-10T09:44:51.006Z,7.75
2023-03-10T09:48:34.001Z,8.27
2023-03-10T09:52:09.194Z,7.63
2023-03-10T09:55:47.925Z,7.45
2023-03-10T09:59:24.596Z,7.18
2023-03-10T10:02:59.569Z,7.00
2023-03-10T10:06:34.526Z,7.05
2023-03-10T10:10:07.040Z,7.05
2023-03-10T10:13:36.657Z,6.30
2023-03-10T10:17:15.138Z,6.32
2023-03-10T10:20:17.265Z,6.60
2023-03-10T10:23:46.142Z,6.90
2023-03-10T10:27:18.729Z,6.70
2023-03-10T10:30:48.796Z,6.85
2023-03-10T10:33:18.429Z,7.07
2023-03-10T10:36:01.013Z,6.03
2023-03-10T10:38:32.672Z,6.00
2023-03-10T10:42:15.140Z,5.70
2023-03-10T10:45:45.338Z,6.32
2023-03-10T10:49:33.861Z,5.70
2023-03-10T10:53:17.715Z,6.30
2023-03-10T10:56:53.181Z,6.05
2023-03-10T11:00:26.769Z,5.93
2023-03-10T11:04:05.748Z,5.95
2023-03-10T11:07:33.750Z,5.45
2023-03-10T11:11:04.348Z,6.90
2023-03-10T11:14:42.237Z,6.50
2023-03-10T11:18:18.913Z,6.95
2023-03-10T11:21:52.558Z,7.97
2023-03-10T11:25:27.160Z,5.47
2023-03-10T11:28:58.829Z,5.75
2023-03-10T11:32:39.763Z,5.97
2023-03-10T11:36:20.243Z,5.22
2023-03-10T11:39:53.454Z,5.90
2023-03-10T11:43:33.699Z,4.97
2023-03-10T11:47:07.582Z,7.25
2023-03-10T11:50:43.513Z,6.22
2023-03-10T11:54:16.131Z,8.98
2023-03-10T11:57:46.938Z,7.60
2023-03-10T12:01:21.529Z,5.53
2023-03-10T12:04:58.877Z,6.05
2023-03-10T12:08:32.561Z,6.50
2023-03-10T12:12:02.374Z,4.53
2023-03-10T12:15:36.962Z,5.47
2023-03-10T12:19:06.365Z,5.22
2023-03-10T12:22:40.190Z,5.53
2023-03-10T12:26:42.327Z,4.95
2023-03-10T12:30:42.106Z,4.75
2023-03-10T12:34:33.510Z,4.32
2023-03-10T12:38:24.629Z,4.70
2023-03-10T12:41:54.488Z,5.18
2023-03-10T12:45:32.882Z,4.63
2023-03-10T12:49:07.754Z,5.15
2023-03-10T12:52:48.918Z,4.93
2023-03-10T12:56:21.991Z,4.40
2023-03-10T12:59:58.410Z,5.00
2023-03-10T13:03:35.627Z,4.63
2023-03-10T13:07:07.876Z,4.63
2023-03-10T13:10:39.178Z,5.03
2023-03-10T13:14:12.310Z,5.15
2023-03-10T13:17:41.721Z,4.50
2023-03-10T13:21:24.911Z,5.75
2023-03-10T13:24:58.074Z,7.18
2023-03-10T13:28:31.390Z,10.30
2023-03-10T13:32:19.786Z,7.35
2023-03-10T13:35:48.291Z,6.30
2023-03-10T13:39:17.739Z,6.70
2023-03-10T13:42:48.462Z,8.40
2023-03-10T13:46:25.982Z,6.30
2023-03-10T13:49:56.464Z,6.20
2023-03-10T13:53:26.551Z,4.25
2023-03-10T13:56:56.299Z,5.10
2023-03-10T14:00:27.504Z,4.28
2023-03-10T14:03:57.398Z,5.05
2023-03-10T14:07:27.659Z,6.50
2023-03-10T14:11:22.917Z,8.18
2023-03-10T14:14:52.113Z,6.57
2023-03-10T14:18:35.640Z,3.80
2023-03-10T14:22:26.058Z,5.78
2023-03-10T14:25:54.847Z,4.35
2023-03-10T14:29:25.143Z,4.10
2023-03-10T14:32:55.411Z,4.95
2023-03-10T14:36:25.132Z,4.70
2023-03-10T14:39:53.300Z,4.18
2023-03-10T14:43:30.304Z,13.23
2023-03-10T14:46:59.949Z,6.75
2023-03-10T14:50:29.993Z,5.65
2023-03-10T14:53:58.276Z,5.28
2023-03-10T14:57:28.622Z,4.85
2023-03-10T15:00:56.800Z,4.88
2023-03-10T15:04:24.978Z,7.28
2023-03-10T15:07:54.404Z,7.13
2023-03-10T15:11:36.096Z,7.05
2023-03-10T15:15:06.200Z,8.00
2023-03-10T15:18:34.475Z,9.13
2023-03-10T15:22:04.187Z,9.85
2023-03-10T15:25:32.178Z,12.70
2023-03-10T15:29:00.435Z,14.57
2023-03-10T15:32:28.401Z,8.85
2023-03-10T15:35:56.621Z,9.25
2023-03-10T15:43:01.511Z,9.77
2023-03-10T15:46:30.727Z,6.95
2023-03-10T15:49:59.418Z,9.10
2023-03-10T15:53:27.521Z,9.32
2023-03-10T15:56:57.071Z,14.88
2023-03-10T16:00:27.470Z,26.13
2023-03-10T16:03:55.810Z,19.10
2023-03-10T16:07:25.299Z,11.25
2023-03-10T16:10:54.921Z,7.53
2023-03-10T16:14:25.658Z,8.98
2023-03-10T16:17:54.175Z,8.60
2023-03-10T16:21:22.736Z,8.77
2023-03-10T16:24:51.398Z,10.40
2023-03-10T16:28:19.292Z,7.38
2023-03-10T16:35:18.458Z,7.55
2023-03-10T16:38:47.050Z,8.77
2023-03-10T16:42:14.932Z,9.50
2023-03-10T16:45:45.341Z,8.75
2023-03-10T16:49:15.966Z,9.60
2023-03-10T16:52:45.625Z,10.10
2023-03-10T16:56:14.511Z,8.52
2023-03-10T16:59:45.073Z,11.68
2023-03-10T17:03:16.283Z,17.08
2023-03-10T17:06:44.847Z,10.43
2023-03-10T17:10:14.067Z,12.85
2023-03-10T17:13:46.387Z,9.38
2023-03-10T17:17:15.094Z,9.27
2023-03-10T17:20:45.000Z,10.98
2023-03-10T17:24:13.657Z,14.52
2023-03-10T17:27:43.296Z,11.07
2023-03-10T17:31:13.025Z,11.73
2023-03-10T17:34:41.716Z,14.93
2023-03-10T17:41:40.833Z,13.70
2023-03-10T17:45:09.269Z,13.15
2023-03-10T17:48:38.011Z,9.75
2023-03-10T17:52:07.671Z,8.98
2023-03-10T17:55:37.720Z,8.75
2023-03-10T17:59:06.371Z,8.15
2023-03-10T18:02:34.764Z,9.43
2023-03-10T18:09:31.288Z,12.45
2023-03-10T18:13:01.289Z,13.23
2023-03-10T18:16:30.320Z,22.73
2023-03-10T18:19:59.197Z,18.13
2023-03-10T18:23:27.510Z,21.13
2023-03-10T18:26:56.281Z,23.27
2023-03-10T18:30:26.157Z,18.25
2023-03-10T18:33:54.077Z,10.20
2023-03-10T18:37:23.026Z,22.23
2023-03-10T18:40:57.651Z,31.60
2023-03-10T18:44:27.178Z,24.40
2023-03-10T18:47:55.454Z,17.95
2023-03-10T18:54:53.567Z,12.40
2023-03-10T18:58:22.379Z,12.43
2023-03-10T19:01:52.080Z,15.63
2023-03-10T19:05:20.157Z,14.50
2023-03-10T19:08:48.495Z,15.27
2023-03-10T19:15:45.348Z,12.38
2023-03-10T19:19:14.980Z,12.23
2023-03-10T19:22:43.393Z,10.68
2023-03-10T19:26:13.500Z,16.65
2023-03-10T19:29:42.024Z,13.43
2023-03-10T19:33:11.052Z,19.27
2023-03-10T19:36:40.666Z,16.20
2023-03-10T19:40:09.638Z,15.63
2023-03-10T19:43:47.497Z,12.98
2023-03-10T19:47:17.637Z,11.00
2023-03-10T19:50:47.057Z,11.40
2023-03-10T19:54:15.281Z,13.93
2023-03-10T19:57:43.264Z,11.40
2023-03-10T20:01:13.784Z,11.27
2023-03-10T20:04:41.730Z,11.88
2023-03-10T20:08:11.602Z,10.70
2023-03-10T20:11:39.984Z,11.95
2023-03-10T20:15:09.157Z,34.78
2023-03-10T20:18:38.915Z,25.58
2023-03-10T20:22:09.964Z,17.10
2023-03-10T20:25:39.405Z,12.15
2023-03-10T20:29:07.787Z,10.82
2023-03-10T20:32:36.463Z,11.02
2023-03-10T20:36:08.654Z,12.25
2023-03-10T20:39:36.657Z,11.57
2023-03-10T20:43:08.534Z,11.00
2023-03-10T20:46:37.101Z,10.65
2023-03-10T20:50:06.578Z,9.68
2023-03-10T20:53:38.417Z,9.23
2023-03-10T20:57:09.764Z,9.75
2023-03-10T21:00:38.876Z,8.88
2023-03-10T21:04:07.689Z,8.50
2023-03-10T21:07:35.694Z,10.18
2023-03-10T21:11:04.357Z,11.10
2023-03-10T21:14:35.605Z,11.13
2023-03-10T21:18:04.436Z,10.10
2023-03-10T21:21:34.552Z,11.27
2023-03-10T21:25:03.692Z,10.88
2023-03-10T21:28:31.608Z,11.10
2023-03-10T21:32:01.049Z,17.20
2023-03-10T21:35:30.605Z,15.38
2023-03-10T21:38:58.855Z,13.13
2023-03-10T21:42:28.789Z,12.15
2023-03-10T21:45:57.154Z,13.00
2023-03-10T21:49:26.425Z,12.35
2023-03-10T21:52:54.856Z,11.27
2023-03-10T21:59:51.483Z,14.63
2023-03-10T22:03:23.562Z,13.00
2023-03-10T22:06:53.176Z,15.95
2023-03-10T22:10:21.035Z,16.33
2023-03-10T22:13:49.438Z,16.02
2023-03-10T22:17:17.897Z,13.95
2023-03-10T22:20:48.921Z,15.07
2023-03-10T22:24:18.290Z,19.95
2023-03-10T22:27:49.590Z,21.15
2023-03-10T22:31:18.367Z,16.33
2023-03-10T22:34:47.082Z,14.30
2023-03-10T22:38:14.787Z,17.30
2023-03-10T22:48:45.450Z,10.88
2023-03-10T22:52:15.017Z,10.30
2023-03-10T22:55:43.766Z,11.15
2023-03-10T22:59:13.209Z,10.10
2023-03-10T23:02:41.210Z,9.80
2023-03-10T23:06:09.694Z,10.10
2023-03-10T23:09:37.543Z,9.40
2023-03-10T23:13:07.689Z,13.80
2023-03-10T23:16:38.514Z,13.75
2023-03-10T23:20:08.865Z,12.93
2023-03-10T23:23:36.801Z,11.73
2023-03-10T23:27:05.092Z,11.20
2023-03-10T23:34:02.421Z,9.23
2023-03-10T23:37:30.672Z,11.52
2023-03-10T23:40:58.421Z,10.93
2023-03-10T23:47:55.946Z,9.43
2023-03-10T23:51:29.006Z,10.85
2023-03-10T23:54:57.357Z,11.52
2023-03-10T23:58:25.790Z,10.93
